Pittsburg, Texas
Current Conditions -  °F | °C
As of 10:15 AM on Thursday 29 Jan 2015 (Local Time) from KOSA Reporting Station
Clear Clear  
Wind Chill: 64°   Ceiling: Unl
Heat Index: 64°   Visibility: 10mi
Dew Point: 43°   Wind: 7mph
Humidity: 46%   Direction: 340°NNW
Pressure: 30.24"   Gusts: NA
Location:  33°N, 94.97°W
Report Text: KOSA 291615Z AUTO 34006KT 10SM CLR 18/06 A3024 RMK AO1 T01790060
Loading
Personal Weather Stations






























Interactive Weather Map New forecast layout! Learn more

10-Day Weather Forecast

Advertisements
Track Severe Weather on mobile